Terminal Aerodrome Forecast
Issued by NWS Wakefield, VA

Home | Current Version | Previous Version | Text Only | Print | Product List | Glossary On
Versions: 1 2 3 4 5 6 7 8 9 10 11 12 13 14 15 16
572
FTUS41 KAKQ 211124
TAFORF
TAF
KORF 211124Z 2112/2212 VRB03KT P6SM SKC
     FM211400 36004KT P6SM SKC
     FM212000 15004KT P6SM SKC
     FM220500 20005KT P6SM SKC=

USA.gov is the U.S. government's official web portal to all federal, state and local government web resources and services.